createdAt,value
2022-11-19T00:02:03.815Z,7.89
2022-11-19T00:04:32.067Z,7.66
2022-11-19T00:07:00.385Z,7.75
2022-11-19T00:09:28.259Z,7.35
2022-11-19T00:12:13.569Z,7.03
2022-11-19T00:14:43.045Z,6.88
2022-11-19T00:17:10.904Z,7.03
2022-11-19T00:19:38.698Z,6.92
2022-11-19T00:22:06.778Z,6.87
2022-11-19T00:24:36.992Z,7.09
2022-11-19T00:27:05.123Z,6.86
2022-11-19T00:29:34.203Z,6.95
2022-11-19T00:32:05.450Z,6.72
2022-11-19T00:34:33.355Z,6.75
2022-11-19T00:37:01.281Z,6.68
2022-11-19T00:39:29.066Z,6.78
2022-11-19T00:41:58.913Z,6.47
2022-11-19T00:44:26.632Z,6.78
2022-11-19T00:46:54.398Z,6.68
2022-11-19T00:49:23.543Z,6.61
2022-11-19T00:51:51.456Z,6.61
2022-11-19T00:54:19.747Z,6.80
2022-11-19T00:56:48.395Z,6.65
2022-11-19T00:59:16.638Z,6.80
2022-11-19T01:01:48.995Z,6.52
2022-11-19T01:04:18.531Z,6.57
2022-11-19T01:06:48.078Z,6.50
2022-11-19T01:09:15.865Z,6.54
2022-11-19T01:11:43.621Z,6.61
2022-11-19T01:14:11.868Z,6.65
2022-11-19T01:16:43.000Z,6.39
2022-11-19T01:19:17.017Z,6.40
2022-11-19T01:21:46.721Z,6.31
2022-11-19T01:24:19.309Z,6.15
2022-11-19T01:26:47.130Z,6.13
2022-11-19T01:29:15.289Z,6.21
2022-11-19T01:31:43.100Z,6.11
2022-11-19T01:34:11.111Z,6.14
2022-11-19T01:36:39.066Z,6.10
2022-11-19T01:39:08.243Z,6.32
2022-11-19T01:41:37.032Z,6.16
2022-11-19T01:44:07.503Z,6.28
2022-11-19T01:46:38.391Z,6.13
2022-11-19T01:49:09.893Z,5.76
2022-11-19T01:51:40.550Z,5.83
2022-11-19T01:54:14.802Z,5.74
2022-11-19T01:56:43.836Z,5.91
2022-11-19T01:59:15.486Z,5.79
2022-11-19T02:01:44.593Z,5.62
2022-11-19T02:04:14.375Z,5.56
2022-11-19T02:06:45.104Z,5.29
2022-11-19T02:09:14.291Z,5.44
2022-11-19T02:12:04.055Z,5.27
2022-11-19T02:14:55.351Z,5.16
2022-11-19T02:17:39.356Z,5.26
2022-11-19T02:20:39.916Z,5.28
2022-11-19T02:23:27.570Z,5.26
2022-11-19T02:26:18.347Z,5.25
2022-11-19T02:28:48.766Z,5.20
2022-11-19T02:31:24.064Z,5.09
2022-11-19T02:33:59.034Z,5.17
2022-11-19T02:36:32.501Z,5.09
2022-11-19T02:39:07.589Z,5.05
2022-11-19T02:41:41.756Z,5.14
2022-11-19T02:44:41.250Z,5.06
2022-11-19T02:47:15.189Z,5.44
2022-11-19T02:49:44.981Z,5.21
2022-11-19T02:52:15.246Z,5.29
2022-11-19T02:54:43.023Z,5.17
2022-11-19T02:57:12.535Z,5.02
2022-11-19T03:00:00.867Z,5.14
2022-11-19T03:02:52.408Z,4.93
2022-11-19T03:05:23.040Z,4.95
2022-11-19T03:07:51.482Z,5.09
2022-11-19T03:10:23.910Z,5.02
2022-11-19T03:12:56.627Z,4.97
2022-11-19T03:15:49.290Z,5.10
2022-11-19T03:18:22.222Z,5.10
2022-11-19T03:20:56.950Z,5.02
2022-11-19T03:23:30.530Z,5.14
2022-11-19T03:26:02.545Z,5.10
2022-11-19T03:28:35.183Z,4.92
2022-11-19T03:31:05.356Z,5.08
2022-11-19T03:33:37.688Z,4.78
2022-11-19T03:36:10.726Z,4.91
2022-11-19T03:38:42.090Z,5.17
2022-11-19T03:41:14.152Z,4.95
2022-11-19T03:43:46.102Z,5.06
2022-11-19T03:46:20.741Z,5.05
2022-11-19T03:48:53.525Z,5.14
2022-11-19T03:51:25.334Z,5.11
2022-11-19T03:53:54.120Z,5.17
2022-11-19T03:56:25.420Z,5.23
2022-11-19T03:58:54.399Z,5.07
2022-11-19T04:01:23.229Z,5.20
2022-11-19T04:04:06.377Z,5.05
2022-11-19T04:06:34.202Z,5.06
2022-11-19T04:09:02.246Z,5.13
2022-11-19T04:11:30.065Z,5.26
2022-11-19T04:13:58.116Z,5.34
2022-11-19T04:16:27.494Z,5.34
2022-11-19T04:18:56.793Z,5.32
2022-11-19T04:21:25.412Z,5.39
2022-11-19T04:23:55.457Z,5.47
2022-11-19T04:26:24.420Z,5.27
2022-11-19T04:28:53.272Z,5.31
2022-11-19T04:31:21.210Z,5.20
2022-11-19T04:33:49.076Z,5.15
2022-11-19T04:36:18.131Z,5.19
2022-11-19T04:38:45.906Z,5.16
2022-11-19T04:41:14.168Z,5.13
2022-11-19T04:43:42.209Z,5.21
2022-11-19T04:46:10.314Z,5.19
2022-11-19T04:48:38.085Z,5.07
2022-11-19T04:51:05.989Z,5.02
2022-11-19T04:53:35.537Z,5.08
2022-11-19T04:56:03.448Z,5.03
2022-11-19T04:58:31.371Z,5.08
2022-11-19T05:00:59.411Z,4.90
2022-11-19T05:03:27.461Z,5.06
2022-11-19T05:05:55.281Z,4.97
2022-11-19T05:08:23.895Z,4.92
2022-11-19T05:10:53.223Z,4.86
2022-11-19T05:13:21.523Z,4.82
2022-11-19T05:15:49.694Z,4.80
2022-11-19T05:18:18.402Z,4.64
2022-11-19T05:20:46.218Z,4.79
2022-11-19T05:23:13.981Z,4.87
2022-11-19T05:25:43.294Z,4.79
2022-11-19T05:28:12.501Z,4.71
2022-11-19T05:30:41.264Z,4.69
2022-11-19T05:33:09.367Z,4.63
2022-11-19T05:35:37.196Z,4.58
2022-11-19T05:38:06.553Z,4.60
2022-11-19T05:40:36.282Z,4.58
2022-11-19T05:43:07.962Z,4.76
2022-11-19T05:45:37.972Z,4.45
2022-11-19T05:48:06.915Z,4.42
2022-11-19T05:50:34.801Z,4.44
2022-11-19T05:53:02.665Z,4.38
2022-11-19T05:55:31.169Z,4.32
2022-11-19T05:57:59.013Z,4.33
2022-11-19T06:00:27.343Z,4.34
2022-11-19T06:02:56.624Z,4.33
2022-11-19T06:05:24.388Z,4.34
2022-11-19T06:07:52.349Z,4.30
2022-11-19T06:10:20.147Z,4.28
2022-11-19T06:12:47.903Z,4.22
2022-11-19T06:15:16.009Z,4.18
2022-11-19T06:17:43.936Z,4.10
2022-11-19T06:20:13.539Z,4.36
2022-11-19T06:22:41.332Z,4.37
2022-11-19T06:25:09.922Z,4.39
2022-11-19T06:27:37.653Z,4.44
2022-11-19T06:30:06.655Z,4.45
2022-11-19T06:32:34.639Z,4.54
2022-11-19T06:35:02.427Z,4.33
2022-11-19T06:37:31.629Z,4.21
2022-11-19T06:39:59.499Z,4.20
2022-11-19T06:42:39.162Z,4.35
2022-11-19T06:45:09.389Z,4.32
2022-11-19T06:47:37.955Z,4.32
2022-11-19T06:50:07.081Z,4.32
2022-11-19T06:52:36.297Z,4.10
2022-11-19T06:55:04.322Z,4.05
2022-11-19T06:57:32.164Z,4.22
2022-11-19T06:59:59.930Z,4.14
2022-11-19T07:02:27.997Z,4.10
2022-11-19T07:04:55.815Z,4.13
2022-11-19T07:07:23.816Z,4.22
2022-11-19T07:09:52.953Z,4.12
2022-11-19T07:12:21.998Z,4.09
2022-11-19T07:14:49.920Z,4.02
2022-11-19T07:17:17.708Z,4.07
2022-11-19T07:19:45.597Z,4.18
2022-11-19T07:22:13.401Z,4.07
2022-11-19T07:24:41.193Z,4.16
2022-11-19T07:27:10.299Z,4.11
2022-11-19T07:29:38.720Z,4.23
2022-11-19T07:32:06.593Z,4.27
2022-11-19T07:34:34.473Z,4.22
2022-11-19T07:37:02.323Z,4.19
2022-11-19T07:39:30.242Z,4.29
2022-11-19T07:42:15.623Z,4.22
2022-11-19T07:44:44.721Z,4.35
2022-11-19T07:47:12.578Z,4.31
2022-11-19T07:49:40.351Z,4.37
2022-11-19T07:52:08.120Z,4.24
2022-11-19T07:54:35.844Z,4.22
2022-11-19T07:57:03.632Z,4.26
2022-11-19T07:59:31.404Z,4.38
2022-11-19T08:02:00.610Z,4.34
2022-11-19T08:04:29.120Z,4.35
2022-11-19T08:06:57.091Z,4.34
2022-11-19T08:09:24.941Z,4.36
2022-11-19T08:11:52.626Z,4.33
2022-11-19T08:14:20.483Z,4.39
2022-11-19T08:17:05.772Z,4.40
2022-11-19T08:19:34.992Z,4.33
2022-11-19T08:22:02.830Z,4.43
2022-11-19T08:24:30.705Z,4.27
2022-11-19T08:26:58.542Z,4.48
2022-11-19T08:29:26.333Z,4.37
2022-11-19T08:31:54.189Z,4.36
2022-11-19T08:34:22.302Z,4.37
2022-11-19T08:36:51.887Z,4.37
2022-11-19T08:39:19.769Z,4.32
2022-11-19T08:42:05.159Z,4.56
2022-11-19T08:44:32.982Z,4.54
2022-11-19T08:47:00.677Z,4.47
2022-11-19T08:49:28.624Z,4.48
2022-11-19T08:51:58.545Z,4.33
2022-11-19T08:54:26.403Z,4.51
2022-11-19T08:56:54.460Z,4.52
2022-11-19T08:59:22.544Z,4.39
2022-11-19T09:01:50.951Z,4.36
2022-11-19T09:04:19.274Z,4.58
2022-11-19T09:06:47.319Z,4.39
2022-11-19T09:09:16.566Z,4.49
2022-11-19T09:11:44.462Z,4.57
2022-11-19T09:14:12.355Z,4.39
2022-11-19T09:16:40.235Z,4.20
2022-11-19T09:19:08.008Z,4.21
2022-11-19T09:21:35.815Z,4.35
2022-11-19T09:24:03.582Z,4.26
2022-11-19T09:26:53.082Z,4.29
2022-11-19T09:29:21.228Z,4.18
2022-11-19T09:31:49.092Z,4.26
2022-11-19T09:34:17.393Z,4.26
2022-11-19T09:36:45.532Z,4.42
2022-11-19T09:39:13.594Z,4.46
2022-11-19T09:41:51.174Z,4.41
2022-11-19T09:44:37.292Z,4.37
2022-11-19T09:47:18.365Z,4.40
2022-11-19T09:49:50.285Z,4.57
2022-11-19T09:52:24.095Z,4.44
2022-11-19T09:54:55.541Z,4.37
2022-11-19T09:57:32.932Z,4.75
2022-11-19T10:00:05.428Z,4.53
2022-11-19T10:02:33.414Z,4.60
2022-11-19T10:05:01.473Z,4.76
2022-11-19T10:07:44.860Z,4.71
2022-11-19T10:10:25.043Z,4.58
2022-11-19T10:13:15.595Z,4.66
2022-11-19T10:15:56.028Z,4.52
2022-11-19T10:18:32.106Z,4.52
2022-11-19T10:21:07.615Z,4.50
2022-11-19T10:23:48.331Z,4.47
2022-11-19T10:26:17.632Z,4.58
2022-11-19T10:28:56.776Z,4.71
2022-11-19T10:31:34.074Z,4.74
2022-11-19T10:34:08.723Z,4.73
2022-11-19T10:36:43.360Z,4.71
2022-11-19T10:39:21.126Z,4.67
2022-11-19T10:41:56.857Z,4.49
2022-11-19T10:44:40.126Z,4.73
2022-11-19T10:47:13.921Z,4.93
2022-11-19T10:49:43.907Z,4.85
2022-11-19T10:52:23.537Z,4.91
2022-11-19T10:54:53.912Z,4.97
2022-11-19T10:57:23.202Z,5.03
2022-11-19T10:59:54.842Z,4.94
2022-11-19T11:02:31.856Z,5.12
2022-11-19T11:05:07.731Z,5.17
2022-11-19T11:07:51.305Z,5.05
2022-11-19T11:10:38.725Z,5.18
2022-11-19T11:13:33.602Z,5.19
2022-11-19T11:16:09.670Z,5.57
2022-11-19T11:18:40.638Z,5.59
2022-11-19T11:21:13.220Z,5.33
2022-11-19T11:23:51.672Z,5.41
2022-11-19T11:26:25.294Z,5.40
2022-11-19T11:28:59.949Z,5.35
2022-11-19T11:31:41.013Z,5.23
2022-11-19T11:34:28.641Z,5.23
2022-11-19T11:36:56.770Z,5.36
2022-11-19T11:39:31.367Z,5.15
2022-11-19T11:42:06.315Z,5.06
2022-11-19T11:44:38.251Z,5.13
2022-11-19T11:47:14.408Z,5.21
2022-11-19T11:49:44.827Z,5.32
2022-11-19T11:52:21.534Z,5.36
2022-11-19T11:54:58.486Z,5.46
2022-11-19T11:57:28.081Z,5.43
2022-11-19T11:59:56.325Z,5.56
2022-11-19T12:02:37.035Z,5.23
2022-11-19T12:05:07.316Z,5.23
2022-11-19T12:07:57.585Z,5.18
2022-11-19T12:10:30.234Z,5.13
2022-11-19T12:13:17.300Z,5.04
2022-11-19T12:15:55.853Z,5.05
2022-11-19T12:18:33.759Z,5.16
2022-11-19T12:21:11.667Z,5.34
2022-11-19T12:23:58.194Z,5.29
2022-11-19T12:26:39.673Z,5.27
2022-11-19T12:29:18.888Z,5.31
2022-11-19T12:32:11.190Z,5.40
2022-11-19T12:34:59.518Z,5.45
2022-11-19T12:37:42.838Z,5.54
2022-11-19T12:40:25.933Z,5.59
2022-11-19T12:43:04.212Z,5.67
2022-11-19T12:45:42.765Z,5.60
2022-11-19T12:48:43.833Z,5.77
2022-11-19T12:51:22.600Z,5.86
2022-11-19T12:54:15.216Z,5.72
2022-11-19T12:56:52.086Z,5.89
2022-11-19T12:59:34.973Z,5.80
2022-11-19T13:02:09.264Z,5.79
2022-11-19T13:04:43.980Z,5.61
2022-11-19T13:07:23.163Z,5.80
2022-11-19T13:09:54.330Z,5.53
2022-11-19T13:12:28.905Z,5.61
2022-11-19T13:15:01.720Z,5.37
2022-11-19T13:17:34.404Z,5.48
2022-11-19T13:20:06.075Z,5.64
2022-11-19T13:22:38.764Z,5.75
2022-11-19T13:25:18.360Z,5.73
2022-11-19T13:27:48.727Z,5.79
2022-11-19T13:30:19.409Z,5.68
2022-11-19T13:32:55.281Z,5.63
2022-11-19T13:35:27.256Z,5.47
2022-11-19T13:38:01.875Z,5.49
2022-11-19T13:40:35.982Z,5.49
2022-11-19T13:43:32.146Z,5.50
2022-11-19T13:46:09.410Z,5.80
2022-11-19T13:48:41.836Z,5.74
2022-11-19T13:51:27.831Z,5.70
2022-11-19T13:54:02.647Z,5.71
2022-11-19T13:56:43.740Z,5.61
2022-11-19T13:59:28.038Z,5.58
2022-11-19T14:02:21.144Z,5.64
2022-11-19T14:05:07.104Z,5.35
2022-11-19T14:07:54.597Z,5.60
2022-11-19T14:10:31.905Z,5.50
2022-11-19T14:13:15.664Z,5.41
2022-11-19T14:16:11.346Z,5.48
2022-11-19T14:18:58.858Z,5.34
2022-11-19T14:22:03.828Z,5.24
2022-11-19T14:25:11.684Z,5.36
2022-11-19T14:27:41.078Z,5.37
2022-11-19T14:30:18.076Z,5.35
2022-11-19T14:32:51.535Z,5.26
2022-11-19T14:35:34.084Z,5.35
2022-11-19T14:38:34.719Z,5.26
2022-11-19T14:41:08.229Z,5.26
2022-11-19T14:44:10.021Z,5.24
2022-11-19T14:46:40.554Z,5.30
2022-11-19T14:49:27.580Z,5.37
2022-11-19T14:51:57.597Z,5.38
2022-11-19T14:54:39.360Z,5.37
2022-11-19T14:57:16.489Z,5.36
2022-11-19T14:59:51.589Z,5.50
2022-11-19T15:02:30.531Z,5.45
2022-11-19T15:05:02.880Z,5.42
2022-11-19T15:07:40.909Z,5.42
2022-11-19T15:10:27.895Z,5.30
2022-11-19T15:13:19.245Z,5.40
2022-11-19T15:15:51.608Z,5.33
2022-11-19T15:18:55.826Z,5.38
2022-11-19T15:21:42.961Z,5.36
2022-11-19T15:24:22.620Z,5.40
2022-11-19T15:27:00.231Z,5.36
2022-11-19T15:30:01.125Z,5.28
2022-11-19T15:32:43.898Z,5.29
2022-11-19T15:35:29.523Z,5.46
2022-11-19T15:38:03.496Z,5.34
2022-11-19T15:40:34.922Z,5.22
2022-11-19T15:43:10.201Z,5.04
2022-11-19T15:45:45.034Z,5.06
2022-11-19T15:48:20.211Z,4.83
2022-11-19T15:50:49.591Z,4.38
2022-11-19T15:53:19.423Z,4.70
2022-11-19T15:55:53.213Z,4.65
2022-11-19T15:58:26.653Z,4.68
2022-11-19T16:00:56.435Z,4.64
2022-11-19T16:03:25.849Z,4.72
2022-11-19T16:06:03.672Z,4.75
2022-11-19T16:08:32.241Z,4.80
2022-11-19T16:11:20.488Z,4.64
2022-11-19T16:14:09.993Z,4.69
2022-11-19T16:16:56.407Z,4.82
2022-11-19T16:19:25.637Z,4.79
2022-11-19T16:21:57.322Z,4.70
2022-11-19T16:24:44.524Z,4.54
2022-11-19T16:27:14.224Z,4.61
2022-11-19T16:29:43.794Z,4.49
2022-11-19T16:32:16.919Z,4.78
2022-11-19T16:34:47.034Z,4.84
2022-11-19T16:37:16.832Z,4.85
2022-11-19T16:39:51.241Z,4.89
2022-11-19T16:42:23.005Z,4.79
2022-11-19T16:44:54.666Z,4.89
2022-11-19T16:47:25.314Z,4.86
2022-11-19T16:50:01.770Z,4.72
2022-11-19T16:52:40.866Z,4.63
2022-11-19T16:55:42.974Z,4.79
2022-11-19T16:58:20.494Z,4.72
2022-11-19T17:00:52.121Z,4.35
2022-11-19T17:03:34.324Z,4.34
2022-11-19T17:06:05.163Z,4.34
2022-11-19T17:08:36.466Z,4.38
2022-11-19T17:11:35.940Z,4.32
2022-11-19T17:14:21.281Z,4.42
2022-11-19T17:16:51.758Z,4.42
2022-11-19T17:19:33.233Z,4.41
2022-11-19T17:22:04.720Z,4.60
2022-11-19T17:24:35.418Z,4.29
2022-11-19T17:27:03.424Z,4.51
2022-11-19T17:29:31.276Z,4.45
2022-11-19T17:31:59.342Z,4.21
2022-11-19T17:34:31.674Z,4.21
2022-11-19T17:37:00.605Z,4.22
2022-11-19T17:39:47.809Z,4.35
2022-11-19T17:42:33.521Z,4.29
2022-11-19T17:45:06.033Z,4.01
2022-11-19T17:47:37.327Z,4.42
2022-11-19T17:50:05.928Z,4.38
2022-11-19T17:52:33.900Z,4.37
2022-11-19T17:55:15.147Z,4.30
2022-11-19T17:57:43.425Z,4.32
2022-11-19T18:00:13.516Z,4.27
2022-11-19T18:02:41.256Z,4.36
2022-11-19T18:05:16.298Z,4.53
2022-11-19T18:07:44.602Z,4.39
2022-11-19T18:10:13.866Z,4.34
2022-11-19T18:12:41.673Z,4.68
2022-11-19T18:15:16.576Z,4.45
2022-11-19T18:17:44.866Z,4.19
2022-11-19T18:20:13.308Z,4.27
2022-11-19T18:22:41.522Z,4.22
2022-11-19T18:25:15.961Z,4.42
2022-11-19T18:27:44.056Z,4.30
2022-11-19T18:30:13.535Z,4.24
2022-11-19T18:32:43.882Z,4.12
2022-11-19T18:35:16.854Z,4.05
2022-11-19T18:37:45.438Z,3.86
2022-11-19T18:40:16.218Z,4.15
2022-11-19T18:43:04.976Z,4.13
2022-11-19T18:45:32.253Z,3.99
2022-11-19T18:48:00.810Z,3.92
2022-11-19T18:50:30.308Z,3.96
2022-11-19T18:52:58.582Z,4.13
2022-11-19T18:55:29.474Z,4.27
2022-11-19T18:57:57.423Z,4.09
2022-11-19T19:00:25.522Z,3.90
2022-11-19T19:02:53.934Z,4.26
2022-11-19T19:05:22.052Z,4.27
2022-11-19T19:07:49.981Z,3.91
2022-11-19T19:10:18.056Z,4.01
2022-11-19T19:12:46.398Z,4.29
2022-11-19T19:15:15.300Z,4.20
2022-11-19T19:17:43.095Z,4.14
2022-11-19T19:20:12.325Z,4.24
2022-11-19T19:22:40.295Z,4.15
2022-11-19T19:25:09.111Z,4.10
2022-11-19T19:27:36.977Z,4.17
2022-11-19T19:30:07.406Z,4.11
2022-11-19T19:32:35.205Z,3.97
2022-11-19T19:35:03.012Z,4.25
2022-11-19T19:37:30.845Z,4.07
2022-11-19T19:39:58.735Z,4.06
2022-11-19T19:42:29.508Z,4.03
2022-11-19T19:44:58.588Z,3.84
2022-11-19T19:47:27.864Z,4.02
2022-11-19T19:49:55.731Z,3.83
2022-11-19T19:52:23.650Z,3.81
2022-11-19T19:54:51.582Z,3.86
2022-11-19T19:57:19.454Z,4.04
2022-11-19T19:59:47.748Z,4.01
2022-11-19T20:02:15.836Z,4.00
2022-11-19T20:04:45.031Z,4.02
2022-11-19T20:07:16.821Z,3.92
2022-11-19T20:09:44.768Z,4.07
2022-11-19T20:12:12.549Z,4.04
2022-11-19T20:14:40.318Z,3.97
2022-11-19T20:17:08.292Z,3.87
2022-11-19T20:19:36.129Z,3.86
2022-11-19T20:22:05.407Z,3.97
2022-11-19T20:24:33.254Z,3.91
2022-11-19T20:27:01.143Z,3.82
2022-11-19T20:29:28.910Z,3.91
2022-11-19T20:31:56.956Z,3.77
2022-11-19T20:34:24.988Z,3.97
2022-11-19T20:36:53.750Z,3.81
2022-11-19T20:39:23.315Z,3.70
2022-11-19T20:42:07.827Z,3.99
2022-11-19T20:44:35.550Z,4.04
2022-11-19T20:47:04.598Z,3.90
2022-11-19T20:49:34.265Z,3.87
2022-11-19T20:52:03.286Z,3.88
2022-11-19T20:54:33.148Z,4.12
2022-11-19T20:57:01.330Z,4.10
2022-11-19T20:59:29.643Z,4.21
2022-11-19T21:01:57.955Z,4.13
2022-11-19T21:04:27.232Z,4.15
2022-11-19T21:06:55.216Z,4.22
2022-11-19T21:09:23.317Z,4.26
2022-11-19T21:11:53.183Z,4.18
2022-11-19T21:14:20.970Z,4.28
2022-11-19T21:16:48.865Z,4.27
2022-11-19T21:19:16.809Z,4.21
2022-11-19T21:21:45.655Z,4.10
2022-11-19T21:24:14.092Z,4.38
2022-11-19T21:26:41.882Z,4.28
2022-11-19T21:29:11.306Z,4.19
2022-11-19T21:31:40.502Z,4.25
2022-11-19T21:34:10.087Z,4.19
2022-11-19T21:36:44.646Z,4.14
2022-11-19T21:39:14.083Z,4.22
2022-11-19T21:41:42.202Z,4.17
2022-11-19T21:44:13.330Z,4.11
2022-11-19T21:46:44.490Z,4.30
2022-11-19T21:49:12.328Z,4.18
2022-11-19T21:51:40.251Z,4.01
2022-11-19T21:54:08.191Z,4.01
2022-11-19T21:56:38.753Z,4.15
2022-11-19T21:59:07.658Z,4.04
2022-11-19T22:01:36.820Z,4.07
2022-11-19T22:04:07.544Z,3.90
2022-11-19T22:06:40.077Z,3.97
2022-11-19T22:09:07.961Z,4.04
2022-11-19T22:11:35.889Z,4.13
2022-11-19T22:14:11.027Z,4.00
2022-11-19T22:16:41.525Z,3.94
2022-11-19T22:19:11.613Z,3.94
2022-11-19T22:21:40.180Z,4.13
2022-11-19T22:24:08.087Z,4.16
2022-11-19T22:26:36.036Z,4.04
2022-11-19T22:29:03.846Z,3.91
2022-11-19T22:31:31.781Z,3.92
2022-11-19T22:34:01.453Z,3.95
2022-11-19T22:36:33.224Z,3.99
2022-11-19T22:39:01.342Z,4.19
2022-11-19T22:41:29.167Z,4.08
2022-11-19T22:43:57.043Z,4.21
2022-11-19T22:46:25.033Z,4.01
2022-11-19T22:48:53.721Z,3.93
2022-11-19T22:51:25.328Z,3.95
2022-11-19T22:53:54.770Z,4.20
2022-11-19T22:56:24.546Z,4.20
2022-11-19T22:58:52.639Z,4.02
2022-11-19T23:01:24.318Z,4.04
2022-11-19T23:03:52.544Z,4.05
2022-11-19T23:06:22.749Z,3.89
2022-11-19T23:08:51.094Z,4.14
2022-11-19T23:11:42.209Z,4.23
2022-11-19T23:14:11.275Z,4.22
2022-11-19T23:16:39.805Z,4.18
2022-11-19T23:19:08.069Z,4.27
2022-11-19T23:21:37.640Z,4.05
2022-11-19T23:24:06.037Z,4.25
2022-11-19T23:26:35.393Z,4.16
2022-11-19T23:29:03.696Z,4.10
2022-11-19T23:31:32.954Z,4.31
2022-11-19T23:34:00.851Z,4.30
2022-11-19T23:36:31.038Z,4.21
2022-11-19T23:39:00.693Z,4.44
2022-11-19T23:41:29.358Z,4.56
2022-11-19T23:43:57.501Z,4.43
2022-11-19T23:46:26.699Z,4.38
2022-11-19T23:48:55.946Z,4.52
2022-11-19T23:51:26.903Z,4.19
2022-11-19T23:53:55.465Z,4.04
2022-11-19T23:56:25.617Z,4.20
2022-11-19T23:58:54.798Z,4.18
